Time;durP1;ratioP1;P1;durP2;ratioP2;P2;SDS_P1;SDS_P2;PMS_P1;PMS_P2;Temp;Humidity;BMP_temperature;BMP_pressure;BME280_temperature;BME280_humidity;BME280_pressure;Samples;Min_cycle;Max_cycle;Signal;HPM_P1;HPM_P2
2022/09/28 00:02:18;;;;;;;6.28;3.33;;;;;;;21.85;55.21;99397.72;1704251;83;21111;-80
2022/09/28 00:04:44;;;;;;;4.00;2.90;;;;;;;21.85;55.22;99399.11;1716875;81;21079;-80
2022/09/28 00:07:11;;;;;;;4.97;3.35;;;;;;;21.85;55.17;99391.41;1704176;82;21512;-79
2022/09/28 00:09:37;;;;;;;5.58;3.37;;;;;;;21.84;55.15;99396.14;1693187;83;21060;-79
2022/09/28 00:12:05;;;;;;;4.17;3.27;;;;;;;21.85;55.14;99394.18;1683989;82;21064;-80
2022/09/28 00:14:31;;;;;;;4.42;3.47;;;;;;;21.85;55.09;99390.03;1704272;83;21434;-79
2022/09/28 00:16:57;;;;;;;4.53;3.17;;;;;;;21.85;55.08;99392.80;1717009;81;21075;-80
2022/09/28 00:19:24;;;;;;;4.25;2.95;;;;;;;21.84;55.07;99398.91;1704217;83;21012;-80
2022/09/28 00:21:50;;;;;;;4.42;2.95;;;;;;;21.84;55.06;99389.22;1716821;82;21008;-79
2022/09/28 00:24:17;;;;;;;3.17;2.83;;;;;;;21.84;55.02;99388.41;1704180;82;20999;-80
2022/09/28 00:26:50;;;;;;;3.37;3.00;;;;;;;21.84;54.99;99389.80;1716529;81;22026;-80
2022/09/28 00:29:30;;;;;;;3.90;3.15;;;;;;;21.84;54.96;99386.45;1692156;83;21052;-79
2022/09/28 00:32:06;;;;;;;3.63;2.70;;;;;;;21.84;54.94;99391.19;1706211;83;21830;-80
2022/09/28 00:34:42;;;;;;;3.60;2.98;;;;;;;21.83;54.90;99384.03;1716464;81;21055;-80
2022/09/28 00:37:08;;;;;;;4.15;2.90;;;;;;;21.83;54.90;99388.19;1705375;82;21021;-79
2022/09/28 00:39:36;;;;;;;4.83;3.00;;;;;;;21.82;54.88;99389.34;1715487;82;21582;-80
2022/09/28 00:42:02;;;;;;;3.70;2.70;;;;;;;21.82;54.84;99389.34;1704940;84;21052;-79
2022/09/28 00:44:51;;;;;;;3.47;2.70;;;;;;;21.81;54.82;99384.37;1715160;83;21084;-79
2022/09/28 00:47:22;;;;;;;4.47;2.98;;;;;;;21.81;54.82;99386.38;1704708;82;21451;-80
2022/09/28 00:50:09;;;;;;;3.70;2.55;;;;;;;21.81;54.78;99391.91;1715315;81;21010;-80
2022/09/28 00:52:50;;;;;;;4.08;2.62;;;;;;;21.81;54.76;99384.98;1704936;83;21137;-80
2022/09/28 00:55:20;;;;;;;2.87;2.50;;;;;;;21.80;54.71;99385.57;1711032;83;21061;-80
2022/09/28 00:57:51;;;;;;;4.80;2.58;;;;;;;21.80;54.71;99385.57;1705113;83;21551;-80
2022/09/28 01:00:17;;;;;;;2.75;2.42;;;;;;;21.80;54.69;99389.72;1715615;81;21431;-80
2022/09/28 01:02:44;;;;;;;2.92;2.45;;;;;;;21.80;54.67;99389.72;1704757;84;21621;-80
2022/09/28 01:05:10;;;;;;;3.08;2.40;;;;;;;21.79;54.65;99390.06;1716063;81;21530;-79
2022/09/28 01:07:36;;;;;;;3.98;2.67;;;;;;;21.80;54.63;99391.68;1715417;83;20997;-79
2022/09/28 01:10:04;;;;;;;3.30;2.35;;;;;;;21.79;54.62;99383.95;1714958;83;21677;-80
2022/09/28 01:12:31;;;;;;;3.17;2.15;;;;;;;21.79;54.61;99390.06;1717856;81;22280;-80
2022/09/28 01:14:57;;;;;;;3.10;2.27;;;;;;;21.79;54.58;99385.34;1731013;82;21055;-80
2022/09/28 01:17:52;;;;;;;3.87;2.75;;;;;;;21.80;54.56;99386.14;1707582;82;21128;-80
2022/09/28 01:20:42;;;;;;;3.20;2.52;;;;;;;21.79;54.55;99393.64;1730738;82;21016;-80
2022/09/28 01:23:39;;;;;;;3.33;2.50;;;;;;;21.79;54.49;99393.64;1730917;81;20988;-79
2022/09/28 01:26:37;;;;;;;3.10;2.30;;;;;;;21.78;54.48;99386.49;1730795;81;22422;-79
2022/09/28 01:29:18;;;;;;;4.03;2.22;;;;;;;21.77;54.44;99379.34;1730490;82;21826;-79
2022/09/28 01:31:51;;;;;;;4.62;2.55;;;;;;;21.77;54.41;99384.88;1730804;81;21679;-79
2022/09/28 01:34:24;;;;;;;6.33;2.42;;;;;;;21.77;54.38;99383.50;1730675;82;21036;-79
2022/09/28 01:36:54;;;;;;;4.25;2.52;;;;;;;21.76;54.39;99387.45;1731057;82;21008;-79
2022/09/28 01:39:31;;;;;;;3.77;2.97;;;;;;;21.75;54.37;99391.37;1730986;82;21094;-79
2022/09/28 01:42:02;;;;;;;3.70;2.45;;;;;;;21.76;54.36;99392.18;1730923;81;21696;-79
2022/09/28 01:44:29;;;;;;;4.78;2.20;;;;;;;21.75;54.35;99391.37;1730676;82;21957;-79
2022/09/28 01:46:59;;;;;;;2.90;2.20;;;;;;;21.76;54.35;99394.38;1730898;81;21050;-80
2022/09/28 01:49:30;;;;;;;4.17;2.67;;;;;;;21.76;54.31;99398.52;1693443;84;21172;-79
2022/09/28 01:52:07;;;;;;;2.37;2.05;;;;;;;21.75;54.28;99391.37;1685146;85;21402;-79
2022/09/28 01:54:47;;;;;;;4.75;2.00;;;;;;;21.75;54.26;99391.37;1685793;85;21402;-79
2022/09/28 01:57:21;;;;;;;3.05;2.40;;;;;;;21.75;54.25;99398.30;1685414;83;21108;-79
2022/09/28 02:00:05;;;;;;;3.37;2.17;;;;;;;21.74;54.23;99403.60;1685472;85;21073;-79
2022/09/28 02:02:36;;;;;;;3.35;2.30;;;;;;;21.75;54.21;99412.14;1662536;85;21082;-80
2022/09/28 02:05:17;;;;;;;3.50;1.98;;;;;;;21.75;54.17;99413.52;1685470;85;21615;-79
2022/09/28 02:07:46;;;;;;;;;;;;;;;21.75;54.17;99416.29;1687171;84;21105;-79
2022/09/28 02:10:35;;;;;;;2.47;2.02;;;;;;;21.74;54.14;99415.25;1685321;83;21766;-79
2022/09/28 02:13:18;;;;;;;2.72;2.20;;;;;;;21.73;54.13;99418.59;1765243;81;20982;-79
2022/09/28 02:16:16;;;;;;;2.75;2.20;;;;;;;21.72;54.13;99429.47;1790330;79;21039;-80
2022/09/28 02:18:43;;;;;;;2.75;2.20;;;;;;;21.72;54.11;99418.40;1770168;80;21023;-80
2022/09/28 02:21:23;;;;;;;3.72;2.35;;;;;;;21.72;54.07;99427.28;1770447;79;21329;-80
2022/09/28 02:23:59;;;;;;;3.83;1.97;;;;;;;21.72;54.05;99428.09;1789920;79;21224;-80
2022/09/28 02:26:33;;;;;;;2.95;2.00;;;;;;;21.72;54.05;99426.70;1768714;78;21042;-80
2022/09/28 02:29:00;;;;;;;3.25;2.10;;;;;;;21.72;54.02;99427.28;1743526;81;21495;-80
2022/09/28 02:31:26;;;;;;;2.65;2.10;;;;;;;21.72;53.99;99422.55;1765288;79;21009;-80
2022/09/28 02:33:53;;;;;;;2.20;1.90;;;;;;;21.72;53.99;99421.74;1765360;79;21424;-80
2022/09/28 02:36:19;;;;;;;3.08;2.20;;;;;;;21.72;53.99;99423.13;1764896;79;21153;-80
2022/09/28 02:38:46;;;;;;;2.47;2.00;;;;;;;21.71;53.94;99433.39;1765169;81;21004;-80
2022/09/28 02:41:38;;;;;;;3.10;2.22;;;;;;;21.72;53.93;99433.62;1743192;81;21495;-80
2022/09/28 02:44:16;;;;;;;3.75;2.20;;;;;;;21.72;53.92;99432.81;1764919;79;21613;-80
2022/09/28 02:47:06;;;;;;;2.60;2.02;;;;;;;21.73;53.86;99434.40;1765148;79;20965;-79
2022/09/28 02:49:37;;;;;;;3.37;1.95;;;;;;;21.71;53.85;99438.93;1764879;79;22213;-80
2022/09/28 02:52:24;;;;;;;3.12;2.20;;;;;;;21.72;53.81;99434.20;1765047;81;21661;-80
2022/09/28 02:55:28;;;;;;;2.77;1.80;;;;;;;21.71;53.79;99427.86;1765091;81;21017;-80
2022/09/28 02:58:24;;;;;;;3.42;1.87;;;;;;;21.71;53.77;99430.63;1765214;80;21542;-80
2022/09/28 03:01:29;;;;;;;2.80;1.90;;;;;;;21.70;53.73;99421.28;1764144;79;21005;-80
2022/09/28 03:04:10;;;;;;;2.92;1.90;;;;;;;21.69;53.71;99426.02;1764939;80;21845;-80
2022/09/28 03:06:47;;;;;;;4.42;1.95;;;;;;;21.68;53.68;99421.66;1764959;79;21016;-79
2022/09/28 03:09:25;;;;;;;2.95;2.30;;;;;;;21.68;53.67;99428.58;1760927;80;21362;-80
2022/09/28 03:11:58;;;;;;;2.80;2.20;;;;;;;21.69;53.66;99432.13;1734537;80;21029;-79
2022/09/28 03:14:25;;;;;;;3.62;2.00;;;;;;;21.67;53.66;99444.95;1734422;80;21040;-80
2022/09/28 03:16:51;;;;;;;3.12;1.95;;;;;;;21.68;53.63;99445.77;1734946;81;21459;-80
2022/09/28 03:19:21;;;;;;;2.58;1.80;;;;;;;21.68;53.65;99445.77;1734637;81;21479;-80
2022/09/28 03:21:48;;;;;;;2.70;1.98;;;;;;;21.69;53.65;99451.50;1734801;82;21016;-80
2022/09/28 03:24:14;;;;;;;3.92;1.98;;;;;;;21.68;53.62;99453.49;1734817;82;21036;-80
2022/09/28 03:26:40;;;;;;;2.45;1.92;;;;;;;21.68;53.61;99456.27;1734642;82;21554;-80
2022/09/28 03:29:06;;;;;;;2.60;2.10;;;;;;;21.69;53.58;99463.38;1734772;81;21660;-80
2022/09/28 03:31:33;;;;;;;2.80;1.80;;;;;;;21.69;53.57;99468.92;1734784;82;20985;-79
2022/09/28 03:34:00;;;;;;;2.95;2.35;;;;;;;21.68;53.54;99465.95;1734615;81;21793;-80
2022/09/28 03:36:26;;;;;;;2.65;2.27;;;;;;;21.69;53.53;99471.69;1713982;81;21064;-80
2022/09/28 03:38:55;;;;;;;2.87;2.05;;;;;;;21.70;53.52;99473.88;1715217;82;21059;-80
2022/09/28 03:41:23;;;;;;;3.22;2.20;;;;;;;21.70;53.47;99469.72;1739456;82;21161;-79
2022/09/28 03:43:49;;;;;;;4.05;2.12;;;;;;;21.71;53.45;99470.77;1739795;81;21063;-80
2022/09/28 03:46:16;;;;;;;2.95;1.90;;;;;;;21.69;53.44;99463.38;1715389;82;21250;-79
2022/09/28 03:48:42;;;;;;;2.12;1.70;;;;;;;21.70;53.42;99470.53;1714959;82;21087;-80
2022/09/28 03:51:09;;;;;;;3.45;1.90;;;;;;;21.69;53.39;99473.07;1739754;82;21495;-79
2022/09/28 03:53:36;;;;;;;3.25;2.15;;;;;;;21.69;53.36;99474.45;1739837;82;21251;-79
2022/09/28 03:56:09;;;;;;;3.95;2.25;;;;;;;21.68;53.28;99466.53;1739602;81;21514;-79
2022/09/28 03:58:36;;;;;;;4.03;2.40;;;;;;;21.68;53.23;99472.06;1739608;80;21502;-79
2022/09/28 04:01:07;;;;;;;2.67;2.12;;;;;;;21.66;53.13;99471.02;1739779;82;20986;-79
2022/09/28 04:03:34;;;;;;;4.10;2.42;;;;;;;21.66;53.08;99470.22;1739536;81;21021;-79
2022/09/28 04:06:00;;;;;;;2.60;2.22;;;;;;;21.65;52.99;99474.95;1739779;82;21863;-79
2022/09/28 04:08:27;;;;;;;5.33;2.55;;;;;;;21.66;52.94;99479.91;1756152;80;21012;-80
2022/09/28 04:10:57;;;;;;;3.95;3.02;;;;;;;21.66;52.91;99479.33;1757111;80;20972;-79
2022/09/28 04:13:25;;;;;;;2.77;2.25;;;;;;;21.67;52.82;99476.80;1762511;81;21051;-81
2022/09/28 04:15:53;;;;;;;5.72;2.90;;;;;;;21.66;52.75;99479.91;1758472;81;21026;-79
2022/09/28 04:18:19;;;;;;;3.92;2.15;;;;;;;21.66;52.66;99484.86;1765365;81;21565;-79
2022/09/28 04:20:47;;;;;;;3.30;2.47;;;;;;;21.65;52.64;99486.02;1765992;81;20999;-79
2022/09/28 04:23:16;;;;;;;17.80;3.30;;;;;;;21.65;52.58;99488.78;1765537;80;21528;-79
2022/09/28 04:25:46;;;;;;;9.88;3.22;;;;;;;21.64;52.51;99477.48;1741138;81;21556;-79
2022/09/28 04:30:55;;;;;;;8.95;2.65;;;;;;;21.62;52.39;99486.73;1742533;81;22228;-79
2022/09/28 04:33:22;;;;;;;5.08;3.10;;;;;;;21.61;52.32;99492.62;1737504;82;21017;-80
2022/09/28 04:35:48;;;;;;;4.03;3.17;;;;;;;21.60;52.25;99483.51;1742459;82;21056;-80
2022/09/28 04:38:15;;;;;;;4.62;2.90;;;;;;;21.60;52.22;99480.73;1767171;81;21036;-80
2022/09/28 04:40:41;;;;;;;6.97;2.75;;;;;;;21.59;52.15;99484.69;1763200;81;20996;-79
2022/09/28 04:43:07;;;;;;;5.42;3.10;;;;;;;21.57;52.09;99485.61;1734945;81;21415;-84
2022/09/28 04:45:34;;;;;;;5.35;2.90;;;;;;;21.53;52.05;99484.72;1754852;80;21035;-77
2022/09/28 04:48:01;;;;;;;9.30;3.20;;;;;;;21.52;52.07;99495.55;1752266;81;21056;-78
2022/09/28 04:50:27;;;;;;;5.83;3.10;;;;;;;21.51;52.07;99499.50;1759702;80;21111;-78
2022/09/28 04:52:53;;;;;;;7.22;3.22;;;;;;;21.50;52.04;99499.27;1754269;80;21044;-78
2022/09/28 04:55:19;;;;;;;8.03;3.50;;;;;;;21.49;51.99;99496.84;1726633;82;21150;-80
2022/09/28 04:57:46;;;;;;;9.48;3.60;;;;;;;21.46;51.94;99501.14;1740092;82;21044;-78
2022/09/28 05:00:13;;;;;;;12.15;3.20;;;;;;;21.42;51.91;99508.55;1689664;81;21464;-79
2022/09/28 05:02:40;;;;;;;12.00;3.37;;;;;;;21.37;52.00;99515.71;1730414;82;21100;-80
2022/09/28 05:05:07;;;;;;;11.28;3.20;;;;;;;21.35;52.07;99523.55;1727710;82;21045;-83
2022/09/28 05:07:34;;;;;;;17.17;6.20;;;;;;;21.34;52.08;99525.50;1764382;79;21118;-80
2022/09/28 05:10:01;;;;;;;13.48;4.70;;;;;;;21.32;52.13;99532.56;1764060;79;21918;-80
2022/09/28 05:12:27;;;;;;;12.68;4.33;;;;;;;21.29;52.16;99531.89;1761014;79;21123;-88
2022/09/28 05:14:55;;;;;;;10.65;3.90;;;;;;;21.28;52.15;99538.57;1742993;81;21608;-82
2022/09/28 05:17:22;;;;;;;8.58;4.55;;;;;;;21.27;52.13;99536.38;1738294;81;21082;-87
2022/09/28 05:19:50;;;;;;;13.72;5.78;;;;;;;21.26;52.11;99538.14;1730503;81;21631;-90
2022/09/28 05:22:16;;;;;;;9.28;6.50;;;;;;;21.26;52.07;99533.38;1711537;81;21039;-86
2022/09/28 05:24:45;;;;;;;19.37;8.93;;;;;;;21.24;52.08;99530.17;1742054;80;21091;-80
2022/09/28 05:27:11;;;;;;;11.20;7.33;;;;;;;21.24;52.12;99531.56;1761828;80;21117;-79
2022/09/28 05:29:37;;;;;;;12.35;7.90;;;;;;;21.23;51.98;99531.33;1728218;82;21321;-80
2022/09/28 05:32:04;;;;;;;10.80;7.60;;;;;;;21.18;51.93;99532.95;1757176;80;21101;-83
2022/09/28 05:34:30;;;;;;;8.78;6.47;;;;;;;21.14;51.92;99538.16;1726342;81;21513;-80
2022/09/28 05:36:57;;;;;;;8.90;5.75;;;;;;;21.11;51.88;99538.84;1758411;80;21685;-81
2022/09/28 05:39:23;;;;;;;8.75;5.45;;;;;;;21.10;51.92;99548.28;1764612;81;21072;-84
2022/09/28 05:41:49;;;;;;;8.48;5.62;;;;;;;21.10;51.96;99542.18;1728011;82;21440;-79
2022/09/28 05:44:16;;;;;;;17.77;7.50;;;;;;;21.14;51.95;99548.64;1743631;80;21613;-80
2022/09/28 05:46:42;;;;;;;8.35;5.97;;;;;;;21.15;51.93;99537.81;1743655;80;21125;-81
2022/09/28 05:49:09;;;;;;;11.48;5.97;;;;;;;21.16;51.93;99535.28;1758225;81;21132;-80
2022/09/28 05:51:35;;;;;;;14.95;5.15;;;;;;;21.15;52.08;99535.63;1737752;79;21121;-78
2022/09/28 05:54:02;;;;;;;20.48;4.65;;;;;;;21.16;52.31;99533.09;1721814;82;21123;-79
2022/09/28 05:56:30;;;;;;;19.27;4.85;;;;;;;21.16;52.47;99542.78;1736451;80;21654;-78
2022/09/28 05:58:57;;;;;;;17.37;4.90;;;;;;;21.17;52.63;99547.16;1755045;81;21027;-78
2022/09/28 06:01:24;;;;;;;14.90;4.45;;;;;;;21.18;52.72;99543.21;1752150;81;21200;-84
2022/09/28 06:03:50;;;;;;;22.75;4.75;;;;;;;21.22;52.94;99544.11;1729309;82;21093;-80
2022/09/28 06:06:16;;;;;;;18.25;6.17;;;;;;;21.21;53.05;99551.64;1739471;81;21111;-79
2022/09/28 06:08:45;;;;;;;12.75;5.53;;;;;;;21.23;53.11;99554.84;1750391;81;21116;-78
2022/09/28 06:11:11;;;;;;;20.15;5.50;;;;;;;21.26;53.15;99556.12;1745787;80;21168;-79
2022/09/28 06:13:42;;;;;;;15.32;7.10;;;;;;;21.26;53.12;99543.06;1749156;79;21557;-79
2022/09/28 06:16:07;;;;;;;19.80;6.78;;;;;;;21.28;53.13;99544.91;1758717;79;21069;-79
2022/09/28 06:18:34;;;;;;;26.20;10.55;;;;;;;21.29;53.10;99546.53;1752188;80;21036;-79
2022/09/28 06:21:01;;;;;;;15.03;7.37;;;;;;;21.30;53.06;99561.95;1754859;80;21743;-79
2022/09/28 06:23:27;;;;;;;16.12;10.15;;;;;;;21.32;53.02;99560.22;1767940;79;21020;-79
2022/09/28 06:25:54;;;;;;;15.03;7.35;;;;;;;21.31;53.01;99563.56;1720700;81;21885;-78
2022/09/28 06:28:20;;;;;;;13.53;7.58;;;;;;;21.32;53.00;99549.97;1739670;80;21024;-79
2022/09/28 06:30:47;;;;;;;9.65;5.78;;;;;;;21.34;52.96;99559.31;1736229;81;21032;-79
2022/09/28 06:33:13;;;;;;;10.82;6.45;;;;;;;21.32;52.99;99561.03;1733395;81;21125;-79
2022/09/28 06:35:41;;;;;;;9.38;4.80;;;;;;;21.33;52.96;99553.54;1734169;80;21469;-79
2022/09/28 06:38:07;;;;;;;9.85;5.03;;;;;;;21.29;52.86;99562.32;1733419;82;21119;-78
2022/09/28 06:40:33;;;;;;;6.92;4.53;;;;;;;21.26;52.86;99562.42;1732230;81;21100;-78
2022/09/28 06:43:11;;;;;;;15.43;7.37;;;;;;;21.24;52.82;99565.33;1701023;82;21976;-78
2022/09/28 06:45:38;;;;;;;5.85;4.20;;;;;;;21.24;52.86;99575.02;1756729;79;21269;-78
2022/09/28 06:48:04;;;;;;;13.03;5.00;;;;;;;21.22;52.82;99581.45;1748782;79;21144;-78
2022/09/28 06:50:41;;;;;;;15.20;4.78;;;;;;;21.21;52.91;99588.17;1736064;80;21026;-80
2022/09/28 06:53:08;;;;;;;16.20;3.55;;;;;;;21.21;53.24;99588.17;1731117;81;22046;-80
2022/09/28 06:55:40;;;;;;;15.78;3.52;;;;;;;21.23;53.60;99590.80;1708467;82;21064;-78
2022/09/28 06:58:10;;;;;;;15.90;4.00;;;;;;;21.22;53.79;99595.28;1754195;79;21109;-76
2022/09/28 07:00:37;;;;;;;17.45;4.10;;;;;;;21.21;53.91;99584.02;1742048;81;21577;-84
2022/09/28 07:03:07;;;;;;;13.65;3.92;;;;;;;21.17;54.08;99592.22;1716984;81;21076;-79
2022/09/28 07:05:35;;;;;;;18.52;4.40;;;;;;;21.13;54.07;99588.52;1744567;81;21140;-79
2022/09/28 07:08:03;;;;;;;8.83;3.30;;;;;;;21.13;54.19;99594.65;1734701;80;21108;-79
2022/09/28 07:10:30;;;;;;;9.60;3.27;;;;;;;21.15;54.24;99593.70;1741476;80;21954;-78
2022/09/28 07:13:00;;;;;;;18.10;4.78;;;;;;;21.16;54.23;99590.60;1745261;80;20952;-78
2022/09/28 07:15:26;;;;;;;12.13;5.58;;;;;;;21.17;54.43;99590.84;1757670;80;21009;-78
2022/09/28 07:17:59;;;;;;;16.48;3.92;;;;;;;21.19;54.46;99598.19;1759895;79;20957;-79
2022/09/28 07:20:26;;;;;;;12.53;4.95;;;;;;;21.20;54.42;99599.80;1740194;80;21040;-76
2022/09/28 07:23:02;;;;;;;15.78;5.65;;;;;;;21.22;54.41;99603.59;1750969;79;21113;-75
2022/09/28 07:25:28;;;;;;;9.58;4.20;;;;;;;21.21;54.42;99599.23;1753863;79;21045;-76
2022/09/28 07:27:56;;;;;;;10.80;4.08;;;;;;;21.20;54.38;99600.38;1772695;79;21023;-79
2022/09/28 07:30:25;;;;;;;7.47;3.15;;;;;;;21.19;54.33;99603.72;1736747;80;21037;-79
2022/09/28 07:32:52;;;;;;;11.80;3.95;;;;;;;21.17;54.29;99602.48;1732507;82;21650;-79
2022/09/28 07:35:18;;;;;;;11.65;4.12;;;;;;;21.16;54.26;99600.86;1734817;81;21028;-81
2022/09/28 07:37:45;;;;;;;9.65;4.85;;;;;;;21.16;54.32;99594.75;1731166;81;21129;-80
2022/09/28 07:43:07;;;;;;;7.35;2.90;;;;;;;21.22;54.29;99598.86;1737221;82;21053;-81
2022/09/28 07:45:37;;;;;;;11.85;3.27;;;;;;;21.26;54.16;99607.30;1733876;82;21060;-81
2022/09/28 07:48:03;;;;;;;7.22;2.95;;;;;;;21.26;54.05;99602.53;1724906;81;21179;-82
2022/09/28 07:50:30;;;;;;;13.83;3.42;;;;;;;21.24;54.18;99606.25;1735552;81;21088;-80
2022/09/28 07:52:57;;;;;;;12.18;3.42;;;;;;;21.28;54.46;99610.50;1735416;80;21852;-78
2022/09/28 07:55:24;;;;;;;20.60;3.27;;;;;;;21.30;54.78;99611.74;1736056;80;21056;-80
2022/09/28 07:57:59;;;;;;;22.15;3.72;;;;;;;21.32;55.05;99618.32;1734805;81;21527;-80
2022/09/28 08:00:23;;;;;;;20.08;4.12;;;;;;;21.34;55.28;99615.42;1735002;80;21595;-79
2022/09/28 08:02:52;;;;;;;31.27;4.50;;;;;;;21.36;55.38;99613.12;1729799;81;21103;-77
2022/09/28 08:05:18;;;;;;;18.82;3.92;;;;;;;21.39;55.55;99614.37;1735361;81;20997;-78
2022/09/28 08:07:44;;;;;;;30.88;5.60;;;;;;;21.38;55.62;99615.55;1713471;82;21587;-78
2022/09/28 08:10:11;;;;;;;21.27;5.00;;;;;;;21.39;55.70;99609.64;1730468;80;21538;-80
2022/09/28 08:12:41;;;;;;;27.52;4.78;;;;;;;21.43;55.78;99618.05;1712408;82;21630;-79
2022/09/28 08:15:09;;;;;;;11.00;4.33;;;;;;;21.46;55.77;99619.31;1731112;81;21097;-80
2022/09/28 08:17:36;;;;;;;9.95;3.90;;;;;;;21.47;55.76;99616.78;1766578;79;20874;-79
2022/09/28 08:22:48;;;;;;;16.85;6.35;;;;;;;21.49;55.67;99617.22;1752380;80;20986;-81
2022/09/28 08:25:14;;;;;;;22.40;5.62;;;;;;;21.52;55.62;99617.89;1759322;79;21107;-80
2022/09/28 08:27:40;;;;;;;17.55;6.17;;;;;;;21.53;55.60;99619.51;1710479;82;21092;-82
2022/09/28 08:30:08;;;;;;;11.45;5.40;;;;;;;21.56;55.58;99622.38;1735741;80;21765;-80
2022/09/28 08:32:35;;;;;;;12.45;5.00;;;;;;;21.57;55.55;99620.41;1762719;79;21090;-81
2022/09/28 08:35:02;;;;;;;12.30;4.67;;;;;;;21.58;55.47;99615.92;1761308;79;21077;-83
2022/09/28 08:37:34;;;;;;;26.50;4.95;;;;;;;21.59;55.36;99623.08;1751590;79;21123;-81
2022/09/28 08:40:01;;;;;;;24.75;5.53;;;;;;;21.61;55.35;99612.44;1752460;79;21197;-82
2022/09/28 08:42:40;;;;;;;26.35;4.75;;;;;;;21.64;55.53;99620.03;1737030;79;21063;-84
2022/09/28 08:45:21;;;;;;;19.92;4.70;;;;;;;21.67;55.95;99613.81;1710987;79;39805;-88
2022/09/28 08:51:01;;;;;;;29.95;3.17;;;;;;;21.81;56.86;99625.86;1720035;81;21838;-80
2022/09/28 08:53:35;;;;;;;15.18;2.67;;;;;;;21.84;57.03;99620.41;1712061;81;21083;-78
2022/09/28 08:56:08;;;;;;;13.22;2.20;;;;;;;21.88;56.93;99621.31;1703526;81;21935;-80
2022/09/28 08:58:41;;;;;;;12.63;2.37;;;;;;;21.90;56.63;99620.16;1755102;79;21035;-79
2022/09/28 09:01:08;;;;;;;27.60;3.02;;;;;;;21.91;56.38;99615.63;1740250;80;21060;-80
2022/09/28 09:03:38;;;;;;;15.63;2.22;;;;;;;21.96;56.18;99617.38;1741534;81;21147;-81
2022/09/28 09:06:36;;;;;;;12.53;3.40;;;;;;;21.98;55.89;99608.92;1722149;82;21534;-78
2022/09/28 09:09:36;;;;;;;14.68;3.27;;;;;;;21.98;55.69;99609.53;1742668;82;20976;-79
2022/09/28 09:12:13;;;;;;;9.37;2.63;;;;;;;21.97;55.55;99606.53;1746177;81;20980;-79
2022/09/28 09:15:08;;;;;;;21.48;4.58;;;;;;;21.94;55.41;99599.72;1735442;82;21422;-80
2022/09/28 09:17:49;;;;;;;13.40;4.22;;;;;;;21.92;55.35;99598.45;1716640;81;21460;-80
2022/09/28 09:20:34;;;;;;;11.05;4.35;;;;;;;21.91;55.41;99602.36;1706334;82;20947;-81
2022/09/28 09:23:06;;;;;;;8.90;4.45;;;;;;;21.92;55.43;99594.29;1703493;82;21022;-80
2022/09/28 09:25:43;;;;;;;8.90;3.87;;;;;;;21.92;55.35;99587.36;1730153;80;21377;-80
2022/09/28 09:28:34;;;;;;;7.17;3.40;;;;;;;21.91;55.29;99587.94;1734194;80;21684;-80
2022/09/28 09:31:28;;;;;;;11.22;3.98;;;;;;;21.90;55.23;99589.70;1678354;84;21290;-79
2022/09/28 09:34:16;;;;;;;8.08;3.50;;;;;;;21.88;55.06;99591.43;1731537;82;21033;-79
2022/09/28 09:37:26;;;;;;;5.47;2.62;;;;;;;21.86;54.92;99589.00;1734376;82;21037;-79
2022/09/28 09:40:19;;;;;;;10.03;3.20;;;;;;;21.84;54.79;99596.87;1719971;81;22300;-80
2022/09/28 09:43:27;;;;;;;9.90;3.10;;;;;;;21.82;54.69;99589.49;1745112;81;21404;-78
2022/09/28 09:46:14;;;;;;;3.95;3.00;;;;;;;21.82;54.63;99584.53;1737025;80;21145;-79
2022/09/28 09:49:02;;;;;;;11.12;4.50;;;;;;;21.81;54.58;99601.72;1701695;82;21080;-80
2022/09/28 09:52:07;;;;;;;10.38;3.42;;;;;;;21.80;54.64;99596.56;1694077;82;21079;-79
2022/09/28 09:54:47;;;;;;;12.03;2.72;;;;;;;21.79;54.81;99590.21;1744624;81;21194;-79
2022/09/28 09:57:25;;;;;;;12.05;2.67;;;;;;;21.82;55.22;99586.72;1745680;81;21008;-82
2022/09/28 09:59:54;;;;;;;11.63;2.47;;;;;;;21.88;55.50;99587.28;1743614;81;21625;-79
2022/09/28 10:02:24;;;;;;;16.50;2.77;;;;;;;21.92;55.67;99578.52;1748034;81;21104;-78
2022/09/28 10:04:56;;;;;;;14.18;2.20;;;;;;;21.98;55.79;99585.38;1756390;81;22218;-79
2022/09/28 10:07:27;;;;;;;14.43;2.30;;;;;;;22.02;55.59;99587.69;1742869;81;21057;-81
2022/09/28 10:09:56;;;;;;;10.88;2.95;;;;;;;22.05;55.49;99598.05;1732555;80;21108;-81
2022/09/28 10:12:22;;;;;;;8.93;2.20;;;;;;;22.07;55.42;99590.17;1732854;81;21106;-82
2022/09/28 10:14:49;;;;;;;7.67;2.65;;;;;;;22.08;55.33;99589.02;1740658;80;21024;-80
2022/09/28 10:17:18;;;;;;;10.65;2.37;;;;;;;22.08;55.26;99586.83;1755588;80;21052;-80
2022/09/28 10:19:45;;;;;;;7.15;2.00;;;;;;;22.07;55.26;99591.55;1744300;80;21028;-82
2022/09/28 10:22:17;;;;;;;4.28;2.60;;;;;;;22.08;55.20;99590.41;1764700;79;21031;-80
2022/09/28 10:24:45;;;;;;;5.15;2.60;;;;;;;22.10;55.04;99591.44;1764266;79;22110;-80
2022/09/28 10:27:22;;;;;;;9.30;2.80;;;;;;;22.10;54.87;99590.86;1771554;79;21026;-78
2022/09/28 10:29:58;;;;;;;11.05;2.62;;;;;;;22.10;54.84;99580.36;1767922;79;20980;-83
2022/09/28 10:32:27;;;;;;;6.25;2.62;;;;;;;22.09;54.69;99587.86;1765559;80;20983;-80
2022/09/28 10:34:56;;;;;;;10.85;3.42;;;;;;;22.09;54.61;99588.44;1767175;79;21483;-80
2022/09/28 10:37:23;;;;;;;9.18;3.20;;;;;;;22.10;54.52;99585.91;1774986;79;21522;-81
2022/09/28 10:39:54;;;;;;;6.30;2.87;;;;;;;22.09;54.41;99583.70;1771970;80;21064;-81
2022/09/28 10:42:24;;;;;;;6.40;2.27;;;;;;;22.09;54.36;99589.25;1767509;79;21008;-80
2022/09/28 10:45:05;;;;;;;5.12;2.42;;;;;;;22.08;54.23;99589.02;1760383;79;21091;-82
2022/09/28 10:47:32;;;;;;;8.78;2.50;;;;;;;22.07;54.10;99589.36;1762393;79;20981;-81
2022/09/28 10:49:58;;;;;;;7.22;2.80;;;;;;;22.08;54.00;99594.56;1765795;79;21187;-80
2022/09/28 10:52:40;;;;;;;17.95;3.22;;;;;;;22.10;53.92;99598.37;1766462;79;21048;-80
2022/09/28 10:55:29;;;;;;;12.07;2.72;;;;;;;22.12;54.26;99596.03;1766960;80;21082;-80
2022/09/28 10:57:55;;;;;;;29.18;2.70;;;;;;;22.15;54.32;99603.04;1771129;79;22292;-79
2022/09/28 11:00:40;;;;;;;16.82;2.10;;;;;;;22.19;54.42;99603.16;1758128;80;21120;-78
2022/09/28 11:03:25;;;;;;;36.40;2.90;;;;;;;22.26;54.20;99599.98;1770327;80;21288;-81
2022/09/28 11:06:04;;;;;;;20.32;2.25;;;;;;;22.31;53.85;99597.52;1709363;80;21081;-78
2022/09/28 11:08:40;;;;;;;19.25;2.35;;;;;;;22.33;53.54;99603.50;1760659;79;21135;-78
2022/09/28 11:11:09;;;;;;;22.48;3.33;;;;;;;22.32;53.43;99599.11;1761221;79;20893;-80
2022/09/28 11:13:47;;;;;;;21.60;3.95;;;;;;;22.28;53.27;99586.55;1769567;79;21511;-83
2022/09/28 11:16:31;;;;;;;9.03;2.05;;;;;;;22.26;53.10;99590.86;1751795;81;21015;-79
2022/09/28 11:19:04;;;;;;;10.78;2.35;;;;;;;22.22;53.00;99594.93;1758126;81;21091;-78
2022/09/28 11:21:42;;;;;;;10.08;2.52;;;;;;;22.20;52.97;99593.08;1756862;81;21044;-78
2022/09/28 11:24:20;;;;;;;7.35;2.67;;;;;;;22.18;52.98;99591.84;1756402;79;21166;-76
2022/09/28 11:26:51;;;;;;;12.15;3.02;;;;;;;22.17;53.00;99593.00;1767571;79;21068;-76
2022/09/28 11:29:32;;;;;;;11.15;3.30;;;;;;;22.17;52.96;99587.45;1752335;79;21184;-77
2022/09/28 11:32:03;;;;;;;10.60;2.75;;;;;;;22.14;52.83;99583.45;1754194;79;20986;-76
2022/09/28 11:34:36;;;;;;;7.97;2.92;;;;;;;22.13;52.73;99574.91;1758695;79;21090;-76
2022/09/28 11:37:23;;;;;;;12.25;3.25;;;;;;;22.12;52.71;99571.09;1725656;82;21088;-77
2022/09/28 11:40:17;;;;;;;8.75;3.67;;;;;;;22.10;52.61;99572.05;1737327;82;21179;-78
2022/09/28 11:42:57;;;;;;;3.83;2.27;;;;;;;22.08;52.48;99575.17;1739136;81;21289;-77
2022/09/28 11:45:38;;;;;;;7.58;2.85;;;;;;;22.07;52.40;99581.05;1762726;81;21716;-77
2022/09/28 11:48:08;;;;;;;7.55;2.50;;;;;;;22.06;52.29;99576.70;1752572;79;21492;-78
2022/09/28 11:50:54;;;;;;;8.30;3.58;;;;;;;22.05;52.22;99570.35;1761854;79;21712;-77
2022/09/28 11:53:26;;;;;;;13.70;3.45;;;;;;;22.04;52.19;99561.81;1756746;80;21858;-77
2022/09/28 11:56:03;;;;;;;15.15;2.75;;;;;;;22.04;52.22;99567.35;1772390;79;21636;-78
2022/09/28 11:58:46;;;;;;;17.92;2.62;;;;;;;22.07;52.48;99566.63;1762719;79;21042;-78
2022/09/28 12:01:49;;;;;;;20.27;1.90;;;;;;;22.14;52.57;99570.17;1757590;79;21065;-79
2022/09/28 12:04:30;;;;;;;9.85;2.27;;;;;;;22.21;52.52;99566.19;1755290;79;21040;-80
2022/09/28 12:06:57;;;;;;;;;;;;;;;;;;1740557;80;21024;-78
2022/09/28 12:10:10;;;;;;;34.53;2.77;;;;;;;22.29;52.29;99564.62;1737355;80;21356;-79